Aérodrome :
LOGIN :

S'inscrire | Disclaimer

   EN    FR    IT 

 










Légende :    VFR   VFR Marginal   IFR   IFR Intensif   IFR Très Intensif
Visi : 
Plafond : 
>= 8 km
>= 3000ft
5 à 8 km
1000 à 3000 ft
1500m à 5 km
500 à 1000 ft
800 à 1500m
200 à 500 ft
< 800m
< 200 ft
Symboles :   Orages  Brouillard  Fortes neiges  Fortes précipitations  Vent > 20 kt
SIGMETs :   Divers  Orages  Givrage  Turbulence  Onde Orograph.  Cendres Volcan.







- Altitude de l'aérodrome : 326 ft
- Code IATA : LCG
- Voir les cartes d'approche


LECO - A Coruna

DERNIER METAR :
  • 230530Z 33016KT 290V030 9000 SCT010 BKN048 11/11 Q1016 TEMPO 3000 -RA BKN014

METARs EXPIRÉS :
  • 230500Z 34018G28KT 300V020 8000 SCT020 SCT030 BKN035 11/11 Q1016 TEMPO 3000 -RA BKN014
  • 230430Z 33018G31KT 280V010 9000 SCT007 SCT013 BKN027 11/11 Q1015 TEMPO 3000 -RA BKN014
  • 230400Z AUTO 34020G34KT 290V020 4400 -RA BR SCT015/// BKN020/// BKN027/// 11/10 Q1015
  • 230330Z AUTO 32015G27KT 260V020 2400 BR SCT012/// BKN021/// BKN029/// 11/10 Q1015
  • 230300Z AUTO 33017G34KT 290V360 3200 -RA BR VV013 11/10 Q1016

TAF TAF LECO
Valide du 23 à 03h jusqu'au 24 à 03h UTC


230200Z 2303/2403 32009KT 8000 SCT020 BKN032 TX13/2314Z TN08/2306Z
TEMPO 2303/2403 3000 -RA BKN014
PROB40
TEMPO 2303/2309 1500 RA BCFG BKN010
TEMPO 2303/2321 32015G27KT
TEMPO 2303/2313 33020G35KT
Pas de NOTAMs connus pour ce terrain.
1 SIGMET publié pour la FIR Madrid (LECM) :
 
Onde orographique forte
LECM SIGMET 1 VALID 230200/230600 LEVA
LECM MADRID FIR SEV MTW FCST WI N3645 W00343 - N3710 W00346 - N3724 W00215 - N3656 W00211 - N3645 W00343 FL060/200 STNR NC=



MET'MAP, la Météo Aéronautique d'un coup d'oeil ! - Copyright ORBIFLY Décembre 2007 - Disclaimer

ORBIFLY MET'MAP TEAM :

Programmation & Développement : Alexandra Zaïnal
Conception & Développement : Baudouin d'Aumeries
Co-Programmation & Développement : Marc-Olivier Méhu
Soutien technique & logistique : Manuel Goepfert

Contact : metmap@orbifly.com




SOURCES & CREDITS :

   NOAA